Flugplatz Dachau-Gröbenried

Für EDMD sind keine METAR/TAF Berichte vorhanden.
Es werden die Flugwettermeldungen vom Flugplatz Oberpfaffenhofen in 19 km Entfernung angezeigt.

Bericht für EDMO

vom 04.12. um 19:20 UTC

Wind 5 kt aus 90°

Sichtweite 10 km oder mehr

gering bewölkt in 13000 ft

aufgebrochene Bewölkung in 19000 ft

aufgebrochene Bewölkung in 25000 ft

Temperatur 3.0°C

Taupunkt -1.0°C

Luftfeuchtigkeit 75%

Luftdruck 990 hPa

EDMO 041920Z AUTO 09005KT 070V170 9999 // FEW130/// BKN190/// BKN250/// 03/M01 Q0990

Prognose für EDMO

vom 04.12. um 17:00 UTC

Zwischen 18:00 UTC und 00:00 UTC

Wind 7 kt aus 110°

Sichtweite 10 km oder mehr

keine signifikanten Wettererscheinungen

keine Wolken


Am 05.12. zwischen 00:00 und 03:00 UTC übergehend zu

Wind 9 kt aus 260°

Sichtweite 10 km oder mehr

keine signifikanten Wettererscheinungen

keine Wolken

TAF EDMO 041700Z 0418/0503 11007KT CAVOK BECMG 0500/0503 26009KT
Impressum